Time;durP1;ratioP1;P1;durP2;ratioP2;P2;SDS_P1;SDS_P2;PMS_P1;PMS_P2;Temp;Humidity;BMP_temperature;BMP_pressure;BME280_temperature;BME280_humidity;BME280_pressure;Samples;Min_cycle;Max_cycle;Signal;HPM_P1;HPM_P2
2024/03/14 00:02:01;;;;;;;5.67;3.90;;;;;;;-145.69;72.89;52384.97;5115613;27;20201;-80
2024/03/14 00:04:28;;;;;;;5.97;3.50;;;;;;;-145.69;72.82;52388.94;5115256;27;20205;-80
2024/03/14 00:06:58;;;;;;;5.80;3.30;;;;;;;-145.69;72.16;52384.97;5115453;27;20551;-79
2024/03/14 00:09:25;;;;;;;5.00;3.37;;;;;;;-145.69;72.61;52357.25;5115879;28;20601;-79
2024/03/14 00:11:51;;;;;;;5.87;3.33;;;;;;;-145.69;72.57;52377.06;5115326;27;20185;-80
2024/03/14 00:14:18;;;;;;;5.40;3.43;;;;;;;-145.69;72.77;52416.66;5115384;28;20192;-80
2024/03/14 00:16:45;;;;;;;5.40;3.13;;;;;;;-145.69;72.00;52398.84;5115426;27;20228;-79
2024/03/14 00:19:17;;;;;;;6.53;3.73;;;;;;;-145.69;72.99;52373.09;5115371;27;20287;-80
2024/03/14 00:21:43;;;;;;;6.37;3.70;;;;;;;-145.69;72.71;52404.78;5115281;27;20232;-80
2024/03/14 00:24:10;;;;;;;11.70;3.93;;;;;;;-145.69;73.61;52404.78;5114961;28;20653;-80
2024/03/14 00:26:37;;;;;;;7.50;3.80;;;;;;;-145.69;71.73;52384.97;5113221;28;20204;-79
2024/03/14 00:29:05;;;;;;;5.77;3.30;;;;;;;-145.69;71.84;52377.06;5115900;27;21218;-80
2024/03/14 00:31:32;;;;;;;4.60;3.00;;;;;;;-145.69;71.77;52388.94;5135971;27;20196;-81
2024/03/14 00:34:00;;;;;;;5.50;3.00;;;;;;;-145.69;71.88;52402.78;5139274;27;20291;-80
2024/03/14 00:36:26;;;;;;;6.47;3.30;;;;;;;-145.69;72.61;52359.22;5140429;27;20338;-80
2024/03/14 00:38:53;;;;;;;5.40;2.87;;;;;;;-145.69;72.37;52371.13;5139881;27;20664;-79
2024/03/14 00:41:20;;;;;;;5.57;3.13;;;;;;;-145.69;72.24;52404.78;5121718;27;20548;-80
2024/03/14 00:43:49;;;;;;;6.63;3.33;;;;;;;-145.69;72.99;52359.22;5118336;27;20667;-80
2024/03/14 00:46:15;;;;;;;5.67;3.33;;;;;;;-145.69;75.53;52398.84;5119619;27;20521;-80
2024/03/14 00:48:42;;;;;;;7.17;3.67;;;;;;;-145.69;74.76;52365.16;5119151;27;20208;-80
2024/03/14 00:51:10;;;;;;;9.10;3.90;;;;;;;-145.69;74.04;52373.09;5118610;27;20587;-80
2024/03/14 00:53:36;;;;;;;5.07;3.27;;;;;;;-145.69;73.40;52381.00;5119251;27;20705;-80
2024/03/14 00:56:05;;;;;;;8.23;3.60;;;;;;;-145.69;74.57;52373.09;5118919;27;20305;-80
2024/03/14 00:58:31;;;;;;;6.10;3.50;;;;;;;-145.69;74.46;52353.28;5118894;27;20189;-80
2024/03/14 01:00:59;;;;;;;7.17;3.60;;;;;;;-145.69;74.96;52375.06;5118881;27;20204;-80
2024/03/14 01:03:25;;;;;;;8.70;3.97;;;;;;;-145.69;74.36;52394.88;5118594;27;20199;-80
2024/03/14 01:05:52;;;;;;;7.03;3.70;;;;;;;-145.69;74.32;52353.28;5118844;27;20204;-80
2024/03/14 01:08:19;;;;;;;7.07;3.60;;;;;;;-145.69;74.19;52381.00;5118765;27;20207;-80
2024/03/14 01:10:46;;;;;;;7.33;3.70;;;;;;;-145.69;73.23;52349.31;5117473;27;20208;-80
2024/03/14 01:13:12;;;;;;;5.87;3.17;;;;;;;-145.69;74.47;52325.56;5117736;27;20660;-81
2024/03/14 01:15:40;;;;;;;6.47;3.50;;;;;;;-145.69;75.00;52404.78;5117901;27;20555;-81
2024/03/14 01:18:06;;;;;;;7.50;3.87;;;;;;;-145.69;74.34;52373.09;5114376;28;20225;-80
2024/03/14 01:20:33;;;;;;;6.17;3.37;;;;;;;-145.69;74.37;52410.72;5098103;28;20537;-81
2024/03/14 01:23:00;;;;;;;7.43;3.70;;;;;;;-145.69;74.53;52388.94;5097837;28;20216;-80
2024/03/14 01:25:26;;;;;;;5.90;3.20;;;;;;;-145.69;74.12;52377.06;5097900;28;20202;-80
2024/03/14 01:27:53;;;;;;;7.23;3.40;;;;;;;-145.69;74.57;52388.94;5098221;28;20202;-81
2024/03/14 01:30:21;;;;;;;7.67;4.10;;;;;;;-145.69;74.97;52386.97;5103687;27;20188;-80
2024/03/14 01:32:50;;;;;;;7.67;3.90;;;;;;;-145.69;74.83;52371.13;5117990;27;20197;-80
2024/03/14 01:35:17;;;;;;;6.13;3.27;;;;;;;-145.69;74.76;52384.97;5114526;28;20193;-80
2024/03/14 01:37:44;;;;;;;7.40;3.53;;;;;;;-145.69;74.40;52357.25;5100613;27;20613;-80
2024/03/14 01:40:12;;;;;;;8.60;3.73;;;;;;;-145.69;74.38;52361.22;5118331;27;20197;-81
2024/03/14 01:42:39;;;;;;;7.03;3.70;;;;;;;-145.69;74.26;52392.91;5131978;27;20249;-80
2024/03/14 01:45:09;;;;;;;5.93;2.93;;;;;;;-145.69;73.62;52377.06;5123690;27;20193;-80
2024/03/14 01:47:36;;;;;;;4.97;3.03;;;;;;;-145.69;73.37;52398.84;5094146;28;20285;-81
2024/03/14 01:50:05;;;;;;;6.07;3.30;;;;;;;-145.69;73.82;52377.06;5112645;28;20253;-80
2024/03/14 01:52:34;;;;;;;5.37;3.07;;;;;;;-145.69;74.31;52388.94;5112149;28;20286;-81
2024/03/14 01:55:00;;;;;;;5.67;2.77;;;;;;;-145.69;75.05;52384.97;5097367;28;20254;-81
2024/03/14 01:57:27;;;;;;;6.80;3.65;;;;;;;-145.69;76.73;52375.06;5095316;28;20538;-81
2024/03/14 01:59:57;;;;;;;8.73;3.60;;;;;;;-145.69;75.36;52359.22;5109940;28;20204;-81
2024/03/14 02:02:24;;;;;;;4.23;3.00;;;;;;;-145.69;75.33;52375.06;5114250;28;20209;-80
2024/03/14 02:04:52;;;;;;;4.83;2.70;;;;;;;-145.69;74.77;52388.94;5114189;28;20288;-80
2024/03/14 02:07:19;;;;;;;4.70;2.63;;;;;;;-145.69;74.06;52396.84;5114289;28;20266;-81
2024/03/14 02:09:46;;;;;;;7.43;3.57;;;;;;;-145.69;74.73;52373.09;5113605;28;20209;-80
2024/03/14 02:12:12;;;;;;;5.80;3.07;;;;;;;-145.69;74.44;52377.06;5113851;28;20540;-80
2024/03/14 02:14:39;;;;;;;5.70;2.83;;;;;;;-145.69;73.91;52404.78;5114025;28;20212;-80
2024/03/14 02:17:06;;;;;;;5.87;2.67;;;;;;;-145.69;73.92;52390.91;5115145;27;20244;-81
2024/03/14 02:19:32;;;;;;;4.43;2.63;;;;;;;-145.69;74.14;52404.78;5117567;27;20211;-80
2024/03/14 02:21:59;;;;;;;3.97;2.33;;;;;;;-145.69;74.63;52424.59;5117339;27;20223;-80
2024/03/14 02:24:26;;;;;;;4.03;2.10;;;;;;;-145.69;74.40;52359.22;5117170;27;20208;-81
2024/03/14 02:26:53;;;;;;;4.17;2.33;;;;;;;-145.69;75.00;52377.06;5117678;27;20208;-79
2024/03/14 02:29:19;;;;;;;4.73;2.50;;;;;;;-145.69;74.49;52375.06;5116732;27;20230;-81
2024/03/14 02:31:46;;;;;;;4.03;2.37;;;;;;;-145.69;74.20;52400.81;5117928;27;20201;-80
2024/03/14 02:34:13;;;;;;;3.93;2.23;;;;;;;-145.69;73.87;52377.06;5117178;27;20257;-80
2024/03/14 02:36:39;;;;;;;2.83;2.00;;;;;;;-145.69;73.95;52377.06;5116850;27;20231;-80
2024/03/14 02:39:10;;;;;;;4.00;2.00;;;;;;;-145.69;73.79;52388.94;5116808;27;20196;-80
2024/03/14 02:41:36;;;;;;;4.03;2.00;;;;;;;-145.69;73.75;52388.94;5117281;27;20208;-81
2024/03/14 02:44:15;;;;;;;3.17;2.17;;;;;;;-145.69;73.94;52361.22;5116120;27;20199;-80
2024/03/14 02:46:42;;;;;;;5.57;2.60;;;;;;;-145.69;73.66;52400.81;5117530;27;20264;-80
2024/03/14 02:49:10;;;;;;;4.23;2.03;;;;;;;-145.69;73.40;52406.75;5116903;27;20551;-79
2024/03/14 02:51:37;;;;;;;3.93;2.40;;;;;;;-145.69;73.10;52400.81;5116998;27;20707;-80
2024/03/14 02:54:05;;;;;;;4.20;2.30;;;;;;;-145.69;72.97;52428.53;5116887;27;20204;-81
2024/03/14 02:56:31;;;;;;;4.30;2.73;;;;;;;-145.69;73.47;52388.94;5112481;28;20200;-80
2024/03/14 02:58:58;;;;;;;4.17;2.40;;;;;;;-145.69;73.12;52406.75;5096297;28;20655;-81
2024/03/14 03:01:25;;;;;;;3.50;2.23;;;;;;;-145.69;73.48;52420.63;5111843;27;20204;-80
2024/03/14 03:03:53;;;;;;;7.00;2.67;;;;;;;-145.69;73.82;52375.06;5116393;27;20655;-80
2024/03/14 03:06:20;;;;;;;7.40;3.37;;;;;;;-145.69;73.85;52400.81;5116905;27;20197;-80
2024/03/14 03:08:47;;;;;;;7.67;3.43;;;;;;;-145.69;73.92;52398.84;5116567;27;20659;-81
2024/03/14 03:11:17;;;;;;;5.53;3.30;;;;;;;-145.69;73.25;52363.19;5104204;28;20288;-81
2024/03/14 03:13:44;;;;;;;5.13;2.77;;;;;;;-145.69;73.70;52406.75;5100508;27;20666;-80
2024/03/14 03:16:12;;;;;;;4.47;2.87;;;;;;;-145.69;73.46;52381.00;5116002;27;20227;-80
2024/03/14 03:18:40;;;;;;;4.70;2.67;;;;;;;-145.69;73.99;52392.91;5116179;27;20311;-80
2024/03/14 03:21:07;;;;;;;6.07;3.03;;;;;;;-145.69;74.44;52434.47;5115692;27;20207;-80
2024/03/14 03:23:38;;;;;;;6.03;3.13;;;;;;;-145.69;74.76;52396.84;5115854;27;20200;-81
2024/03/14 03:26:06;;;;;;;5.87;2.77;;;;;;;-145.69;74.43;52430.53;5116243;27;20726;-80
2024/03/14 03:28:33;;;;;;;6.87;3.20;;;;;;;-145.69;74.73;52436.47;5116048;27;20564;-81
2024/03/14 03:30:59;;;;;;;7.33;3.50;;;;;;;-145.69;74.73;52383.00;5127306;27;20213;-81
2024/03/14 03:33:27;;;;;;;5.27;2.83;;;;;;;-145.69;73.93;52369.13;5136571;27;20206;-81
2024/03/14 03:35:53;;;;;;;3.67;2.53;;;;;;;-145.69;73.72;52369.13;5135969;27;20196;-81
2024/03/14 03:38:20;;;;;;;6.63;2.80;;;;;;;-145.69;74.55;52408.75;5114336;27;20228;-81
2024/03/14 03:40:46;;;;;;;5.00;2.67;;;;;;;-145.69;73.50;52412.69;5115530;27;20201;-80
2024/03/14 03:43:12;;;;;;;5.93;3.20;;;;;;;-145.69;73.60;52404.78;5115881;27;20673;-80
2024/03/14 03:45:39;;;;;;;6.40;3.33;;;;;;;-145.69;73.44;52412.69;5111979;28;20285;-81
2024/03/14 03:48:05;;;;;;;5.97;3.13;;;;;;;-145.69;73.46;52412.69;5095586;28;20560;-80
2024/03/14 03:50:32;;;;;;;5.80;2.83;;;;;;;-145.69;73.84;52404.78;5112139;28;20592;-80
2024/03/14 03:52:58;;;;;;;6.67;2.93;;;;;;;-145.69;73.87;52434.47;5095572;28;20308;-81
2024/03/14 03:55:25;;;;;;;4.93;2.67;;;;;;;-145.69;73.94;52363.19;5095267;28;20651;-81
2024/03/14 03:57:50;;;;;;;6.23;3.10;;;;;;;-145.69;73.62;52402.78;5094991;28;20233;-80
2024/03/14 04:00:41;;;;;;;4.83;2.70;;;;;;;-145.69;73.26;52384.97;5118198;27;20192;-80
2024/03/14 04:03:08;;;;;;;5.00;2.73;;;;;;;-145.69;73.59;52396.84;5139740;27;20197;-81
2024/03/14 04:05:34;;;;;;;4.97;2.63;;;;;;;-145.69;73.87;52381.00;5136291;27;20203;-81
2024/03/14 04:08:01;;;;;;;3.93;2.40;;;;;;;-145.69;73.75;52392.91;5135318;27;20195;-81
2024/03/14 04:10:27;;;;;;;3.87;2.30;;;;;;;-145.69;73.70;52410.72;5135907;27;20551;-81
2024/03/14 04:12:54;;;;;;;3.77;2.00;;;;;;;-145.69;73.42;52436.47;5136039;27;20658;-81
2024/03/14 04:15:21;;;;;;;5.20;2.17;;;;;;;-145.69;73.77;52384.97;5116240;27;20239;-81
2024/03/14 04:17:46;;;;;;;3.97;2.50;;;;;;;-145.69;73.65;52416.66;5094160;28;20268;-81
2024/03/14 04:20:14;;;;;;;4.00;2.10;;;;;;;-145.69;73.70;52396.84;5094533;28;20197;-81
2024/03/14 04:22:41;;;;;;;3.70;2.10;;;;;;;-145.69;73.57;52424.59;5094980;28;20201;-81
2024/03/14 04:25:11;;;;;;;3.00;1.90;;;;;;;-145.69;73.26;52408.75;5111870;28;20212;-81
2024/03/14 04:27:41;;;;;;;4.53;2.17;;;;;;;-145.69;73.84;52392.91;5111990;28;20258;-81
2024/03/14 04:30:10;;;;;;;3.63;2.20;;;;;;;-145.69;74.24;52396.84;5122380;27;20589;-81
2024/03/14 04:32:39;;;;;;;5.17;2.50;;;;;;;-145.69;74.14;52394.88;5115575;28;20305;-81
2024/03/14 04:35:05;;;;;;;3.70;2.13;;;;;;;-145.69;73.50;52414.69;5114844;28;20281;-81
2024/03/14 04:37:32;;;;;;;4.03;2.27;;;;;;;-145.69;73.72;52381.00;5114925;27;20229;-81
2024/03/14 04:39:59;;;;;;;3.87;2.20;;;;;;;-145.69;74.10;52384.97;5115317;28;20708;-81
2024/03/14 04:42:26;;;;;;;4.60;2.23;;;;;;;-145.69;73.24;52396.84;5115113;28;20201;-81
2024/03/14 04:44:54;;;;;;;2.83;1.87;;;;;;;-145.69;73.96;52384.97;5114826;28;20204;-81
2024/03/14 04:47:21;;;;;;;8.43;2.60;;;;;;;-145.69;73.85;52416.66;5115339;28;20690;-81
2024/03/14 04:49:48;;;;;;;4.40;2.00;;;;;;;-145.69;74.05;52384.97;5114735;28;20243;-81
2024/03/14 04:52:16;;;;;;;3.23;1.90;;;;;;;-145.69;73.54;52392.91;5114975;28;20197;-81
2024/03/14 04:54:46;;;;;;;3.03;1.93;;;;;;;-145.69;73.41;52394.88;5115586;28;20287;-81
2024/03/14 04:57:13;;;;;;;3.00;1.97;;;;;;;-145.69;73.09;52388.94;5115358;28;20274;-81
2024/03/14 04:59:41;;;;;;;3.27;1.90;;;;;;;-145.69;74.52;52373.09;5114362;28;20647;-81
2024/03/14 05:02:08;;;;;;;2.97;2.07;;;;;;;-145.69;73.79;52390.91;5110411;28;20204;-80
2024/03/14 05:04:35;;;;;;;5.50;2.23;;;;;;;-145.69;73.53;52412.69;5104516;28;20208;-81
2024/03/14 05:07:02;;;;;;;2.83;2.13;;;;;;;-145.69;72.98;52398.84;5114073;28;20680;-81
2024/03/14 05:09:28;;;;;;;4.90;2.00;;;;;;;-145.69;73.39;52402.78;5113959;28;20192;-81
2024/03/14 05:11:56;;;;;;;3.77;2.07;;;;;;;-145.69;72.89;52396.84;5114988;28;20209;-81
2024/03/14 05:14:23;;;;;;;3.43;2.13;;;;;;;-145.69;73.87;52414.69;5115095;28;20832;-81
2024/03/14 05:16:50;;;;;;;3.73;2.20;;;;;;;-145.69;74.05;52402.78;5108224;28;20209;-81
2024/03/14 05:19:20;;;;;;;3.10;1.90;;;;;;;-145.69;73.99;52420.63;5096047;28;20249;-82
2024/03/14 05:21:47;;;;;;;2.73;2.00;;;;;;;-145.69;73.76;52414.69;5098717;28;20197;-81
2024/03/14 05:24:16;;;;;;;3.17;1.90;;;;;;;-145.69;74.44;52396.84;5097916;28;20284;-80
2024/03/14 05:26:43;;;;;;;5.10;2.60;;;;;;;-145.69;74.37;52438.44;5110568;27;20674;-80
2024/03/14 05:29:09;;;;;;;6.77;2.50;;;;;;;-145.69;74.02;52400.81;5118614;27;20188;-80
2024/03/14 05:31:36;;;;;;;4.20;2.20;;;;;;;-145.69;74.13;52396.84;5114430;28;20198;-81
2024/03/14 05:34:03;;;;;;;3.07;1.80;;;;;;;-145.69;73.92;52396.84;5114798;28;20198;-80
2024/03/14 05:36:29;;;;;;;4.10;2.30;;;;;;;-145.69;74.12;52402.78;5097945;28;20197;-80
2024/03/14 05:38:58;;;;;;;3.47;2.13;;;;;;;-145.69;75.84;52414.69;5114630;28;20319;-81
2024/03/14 05:41:24;;;;;;;4.60;2.70;;;;;;;-145.69;75.54;52379.03;5097806;28;20240;-79
2024/03/14 05:43:55;;;;;;;2.97;2.10;;;;;;;-145.69;74.96;52406.75;5097987;28;20564;-82
2024/03/14 05:46:22;;;;;;;5.57;2.40;;;;;;;-145.69;76.06;52392.91;5098066;28;20259;-80
2024/03/14 05:48:49;;;;;;;3.67;2.30;;;;;;;-145.69;75.45;52375.06;5110718;28;20197;-80
2024/03/14 05:51:15;;;;;;;4.07;2.30;;;;;;;-145.69;75.42;52422.59;5114568;28;20229;-80
2024/03/14 05:53:42;;;;;;;4.53;2.93;;;;;;;-145.69;74.82;52420.63;5117810;27;20681;-80
2024/03/14 05:56:09;;;;;;;2.50;1.97;;;;;;;-145.69;74.91;52377.06;5118048;27;20253;-81
2024/03/14 05:58:37;;;;;;;3.40;2.20;;;;;;;-145.69;74.60;52379.03;5118020;27;20307;-83
2024/03/14 06:01:06;;;;;;;3.60;2.27;;;;;;;-145.69;74.98;52381.00;5117790;27;20192;-81
2024/03/14 06:03:33;;;;;;;3.23;2.03;;;;;;;-145.69;75.19;52426.56;5113890;28;20185;-80
2024/03/14 06:06:01;;;;;;;7.83;2.50;;;;;;;-145.69;75.95;52394.88;5098786;27;20655;-80
2024/03/14 06:08:28;;;;;;;4.43;2.30;;;;;;;-145.69;75.60;52396.84;5117798;27;20204;-80
2024/03/14 06:10:54;;;;;;;4.53;2.53;;;;;;;-145.69;75.38;52408.75;5117969;27;20691;-80
2024/03/14 06:13:22;;;;;;;4.07;2.40;;;;;;;-145.69;75.47;52373.09;5117669;27;20296;-80
2024/03/14 06:15:50;;;;;;;4.33;2.27;;;;;;;-145.69;75.65;52394.88;5117936;27;20205;-80
2024/03/14 06:18:19;;;;;;;3.83;2.27;;;;;;;-145.69;75.19;52379.03;5117099;27;20220;-80
2024/03/14 06:20:45;;;;;;;4.60;2.83;;;;;;;-145.69;75.72;52375.06;5117732;27;20204;-83
2024/03/14 06:23:13;;;;;;;4.87;2.40;;;;;;;-145.69;75.87;52390.91;5117534;27;20192;-80
2024/03/14 06:25:40;;;;;;;3.97;2.23;;;;;;;-145.69;76.02;52388.94;5117640;27;20770;-81
2024/03/14 06:28:07;;;;;;;4.97;2.70;;;;;;;-145.69;76.02;52369.13;5117350;27;20224;-82
2024/03/14 06:30:34;;;;;;;4.87;2.80;;;;;;;-145.69;75.65;52416.66;5116293;27;20204;-82
2024/03/14 06:33:01;;;;;;;5.53;2.90;;;;;;;-145.69;75.97;52381.00;5123970;27;20192;-82
2024/03/14 06:35:28;;;;;;;3.67;2.33;;;;;;;-145.69;75.92;52402.78;5116084;27;20190;-81
2024/03/14 06:37:55;;;;;;;6.10;2.50;;;;;;;-145.69;76.53;52388.94;5096534;28;20225;-81
2024/03/14 06:40:22;;;;;;;7.00;2.80;;;;;;;-145.69;76.39;52373.09;5096193;28;20197;-82
2024/03/14 06:42:49;;;;;;;7.83;2.80;;;;;;;-145.69;76.54;52402.78;5096638;28;20208;-80
2024/03/14 06:45:16;;;;;;;5.37;3.03;;;;;;;-145.69;76.20;52388.94;5096456;28;20250;-81
2024/03/14 06:47:45;;;;;;;4.17;2.40;;;;;;;-145.69;76.58;52388.94;5096857;28;20198;-82
2024/03/14 06:50:12;;;;;;;4.13;2.00;;;;;;;-145.69;75.87;52384.97;5103565;28;20780;-81
2024/03/14 06:52:39;;;;;;;3.90;2.40;;;;;;;-145.69;75.70;52353.28;5113263;28;20228;-81
2024/03/14 06:55:09;;;;;;;4.13;2.30;;;;;;;-145.69;76.30;52402.78;5112576;28;20200;-82
2024/03/14 06:57:39;;;;;;;4.40;2.07;;;;;;;-145.69;75.99;52396.84;5113381;28;20204;-82
2024/03/14 07:00:12;;;;;;;1.83;1.40;;;;;;;-145.69;76.39;52369.13;5113071;28;20656;-81
2024/03/14 07:02:40;;;;;;;1.97;1.47;;;;;;;-145.69;76.08;52394.88;5113276;27;20200;-81
2024/03/14 07:05:09;;;;;;;2.63;1.43;;;;;;;-145.69;75.96;52381.00;5098263;28;20239;-81
2024/03/14 07:07:36;;;;;;;3.50;1.40;;;;;;;-145.69;76.09;52349.31;5113051;28;20258;-81
2024/03/14 07:10:03;;;;;;;2.80;1.50;;;;;;;-145.69;75.66;52355.28;5113291;28;20205;-81
2024/03/14 07:12:31;;;;;;;1.77;1.10;;;;;;;-145.69;75.61;52396.84;5113341;28;20228;-81
2024/03/14 07:14:59;;;;;;;2.03;1.40;;;;;;;-145.69;76.11;52369.13;5112681;28;20204;-81
2024/03/14 07:17:27;;;;;;;1.50;1.20;;;;;;;-145.69;76.47;52400.81;5112309;28;20202;-80
2024/03/14 07:19:54;;;;;;;2.00;1.50;;;;;;;-145.69;76.58;52377.06;5115698;27;20220;-81
2024/03/14 07:22:24;;;;;;;1.97;1.17;;;;;;;-145.69;77.09;52339.44;5111626;27;20632;-82
2024/03/14 07:24:53;;;;;;;1.93;1.63;;;;;;;-145.69;76.35;52384.97;5112224;28;20208;-82
2024/03/14 07:27:20;;;;;;;1.90;1.27;;;;;;;-145.69;75.42;52357.25;5095755;28;20294;-81
2024/03/14 07:29:47;;;;;;;1.17;0.97;;;;;;;-145.69;76.34;52371.13;5095818;28;20190;-80
2024/03/14 07:32:14;;;;;;;5.73;1.20;;;;;;;-145.69;75.81;52392.91;5107380;27;20189;-80
2024/03/14 07:34:44;;;;;;;2.23;1.40;;;;;;;-145.69;75.63;52355.28;5112265;28;20209;-81
2024/03/14 07:37:12;;;;;;;2.20;1.40;;;;;;;-145.69;76.20;52357.25;5112273;28;20193;-80
2024/03/14 07:39:39;;;;;;;1.73;1.30;;;;;;;-145.69;76.66;52331.50;5112134;28;20229;-81
2024/03/14 07:42:06;;;;;;;2.33;1.20;;;;;;;-145.69;76.66;52325.56;5112408;28;20204;-81
2024/03/14 07:44:34;;;;;;;1.27;1.17;;;;;;;-145.69;76.46;52363.19;5112538;27;20202;-81
2024/03/14 07:47:00;;;;;;;1.67;1.10;;;;;;;-145.69;76.14;52353.28;5095811;28;20288;-81
2024/03/14 07:49:27;;;;;;;1.90;0.90;;;;;;;-145.69;76.24;52341.41;5095533;28;20254;-81
2024/03/14 07:51:55;;;;;;;1.53;1.10;;;;;;;-145.69;76.77;52351.31;5095054;28;20316;-81
2024/03/14 07:54:23;;;;;;;1.63;0.97;;;;;;;-145.69;75.62;52347.34;5095601;28;20201;-81
2024/03/14 07:56:51;;;;;;;1.27;1.00;;;;;;;-145.69;75.81;52367.16;5095593;28;20212;-80
2024/03/14 07:59:19;;;;;;;1.30;1.00;;;;;;;-145.69;74.20;52359.22;5112933;27;20224;-81
2024/03/14 08:01:46;;;;;;;0.93;0.85;;;;;;;-145.69;75.63;52331.50;5117199;27;20207;-81
2024/03/14 08:04:13;;;;;;;0.97;0.80;;;;;;;-145.69;74.39;52361.22;5116076;27;20615;-80
2024/03/14 08:06:45;;;;;;;1.33;0.90;;;;;;;-145.69;75.09;52313.69;5110021;27;20223;-81
2024/03/14 08:09:14;;;;;;;1.30;0.90;;;;;;;-145.69;74.14;52333.47;5110757;28;20231;-81
2024/03/14 08:11:41;;;;;;;1.07;0.80;;;;;;;-145.69;74.39;52323.59;5113911;27;20192;-81
2024/03/14 08:14:08;;;;;;;1.83;0.90;;;;;;;-145.69;75.91;52335.47;5113047;27;20197;-81
2024/03/14 08:16:35;;;;;;;0.98;0.80;;;;;;;-145.69;74.24;52353.28;5113850;27;20211;-81
2024/03/14 08:19:02;;;;;;;0.80;0.80;;;;;;;-145.69;74.78;52341.41;5112959;27;20229;-81
2024/03/14 08:21:29;;;;;;;1.30;0.95;;;;;;;-145.69;74.58;52325.56;5114937;27;20673;-80
2024/03/14 08:23:58;;;;;;;1.70;0.70;;;;;;;-145.69;72.04;52341.41;5115482;28;20775;-81
2024/03/14 08:26:25;;;;;;;0.63;0.63;;;;;;;-145.69;75.09;52333.47;5115340;27;20202;-81
2024/03/14 08:28:54;;;;;;;0.60;0.60;;;;;;;-145.69;71.17;52311.69;5115126;27;20205;-80
2024/03/14 08:31:21;;;;;;;2.65;0.63;;;;;;;-145.69;72.34;52309.72;5121748;27;20185;-80
2024/03/14 08:33:50;;;;;;;0.70;0.70;;;;;;;-145.69;70.51;52353.28;5120935;28;20202;-82
2024/03/14 08:36:17;;;;;;;0.60;0.60;;;;;;;-145.69;70.73;52321.59;5095069;28;20292;-80
2024/03/14 08:38:44;;;;;;;0.73;0.63;;;;;;;-145.69;71.34;52307.75;5094837;28;20225;-80
2024/03/14 08:41:13;;;;;;;0.65;0.65;;;;;;;-145.69;71.32;52297.84;5094736;28;20197;-80
2024/03/14 08:43:43;;;;;;;1.00;0.60;;;;;;;-145.69;72.31;52351.31;5109408;28;20204;-79
2024/03/14 08:46:10;;;;;;;0.63;0.50;;;;;;;-145.69;70.74;52315.66;5115355;28;20697;-79
2024/03/14 08:48:36;;;;;;;0.50;0.50;;;;;;;-145.69;66.95;52319.63;5115021;28;20196;-79
2024/03/14 08:51:04;;;;;;;0.57;0.52;;;;;;;-145.69;70.60;52319.63;5114920;28;20232;-80
2024/03/14 08:53:53;;;;;;;0.50;0.50;;;;;;;-145.69;70.86;52301.81;5115599;27;20193;-79
2024/03/14 08:56:19;;;;;;;0.52;0.50;;;;;;;-145.69;67.98;52291.91;5122121;27;20689;-78
2024/03/14 08:58:47;;;;;;;2.28;0.45;;;;;;;-145.69;69.76;52297.84;5115546;28;20217;-80
2024/03/14 09:01:14;;;;;;;0.50;0.50;;;;;;;-145.69;65.35;52297.84;5104587;27;20652;-80
2024/03/14 09:03:40;;;;;;;1.27;0.60;;;;;;;-145.69;68.39;52297.84;5119045;27;20235;-80
2024/03/14 09:06:07;;;;;;;0.40;0.40;;;;;;;-145.69;68.59;52315.66;5118715;27;20197;-79
2024/03/14 09:08:35;;;;;;;0.50;0.50;;;;;;;-145.69;66.30;52317.66;5119130;27;20201;-80
2024/03/14 09:11:03;;;;;;;0.50;0.50;;;;;;;-145.69;66.78;52287.94;5118945;27;20204;-79
2024/03/14 09:13:30;;;;;;;0.50;0.50;;;;;;;-145.69;68.18;52305.75;5118636;27;20296;-79
2024/03/14 09:15:57;;;;;;;0.40;0.40;;;;;;;-145.69;67.03;52291.91;5117882;27;20193;-80
2024/03/14 09:18:24;;;;;;;0.50;0.50;;;;;;;-145.69;67.68;52276.06;5118599;27;20192;-80
2024/03/14 09:20:55;;;;;;;1.70;0.60;;;;;;;-145.69;66.08;52309.72;5118770;27;20241;-80
2024/03/14 09:23:25;;;;;;;0.40;0.40;;;;;;;-145.69;66.26;52293.88;5119299;27;20279;-79
2024/03/14 09:25:51;;;;;;;0.43;0.43;;;;;;;-145.69;67.04;52289.91;5115892;27;20280;-80
2024/03/14 09:28:18;;;;;;;0.30;0.30;;;;;;;-145.69;66.13;52274.06;5098255;28;20193;-80
2024/03/14 09:30:45;;;;;;;0.40;0.40;;;;;;;-145.69;65.53;52289.91;5098853;27;20679;-79
2024/03/14 09:33:12;;;;;;;0.50;0.40;;;;;;;-145.69;64.36;52289.91;5118464;27;20192;-79
2024/03/14 09:35:44;;;;;;;0.40;0.40;;;;;;;-145.69;62.29;52305.75;5118745;27;20201;-80
2024/03/14 09:38:11;;;;;;;0.50;0.50;;;;;;;-145.69;62.06;52282.00;5118747;27;20709;-80
2024/03/14 09:40:39;;;;;;;0.40;0.40;;;;;;;-145.69;61.18;52270.13;5114435;28;20617;-80
2024/03/14 09:43:06;;;;;;;0.70;0.50;;;;;;;-145.69;59.56;52268.13;5097745;28;20201;-79
2024/03/14 09:45:32;;;;;;;0.40;0.40;;;;;;;-145.69;59.21;52289.91;5097532;28;20198;-80
2024/03/14 09:48:00;;;;;;;0.50;0.50;;;;;;;-145.69;59.89;52287.94;5097908;28;20193;-80
2024/03/14 09:50:26;;;;;;;0.55;0.55;;;;;;;-145.69;60.01;52285.97;5114669;28;20225;-80
2024/03/14 09:52:53;;;;;;;0.45;0.43;;;;;;;-145.69;57.80;52305.75;5114227;28;20255;-81
2024/03/14 09:55:20;;;;;;;1.17;0.40;;;;;;;-145.69;56.02;52266.16;5117767;27;20193;-79
2024/03/14 09:57:46;;;;;;;3.50;0.52;;;;;;;-145.69;54.20;52250.31;5118061;27;20653;-80
2024/03/14 10:00:16;;;;;;;0.85;0.63;;;;;;;-145.69;55.59;52254.28;5117805;27;20232;-80
2024/03/14 10:02:42;;;;;;;0.50;0.50;;;;;;;-145.69;55.46;52262.19;5117819;27;20197;-80
2024/03/14 10:05:10;;;;;;;0.60;0.60;;;;;;;-145.69;56.02;52258.22;5116776;28;20204;-80
2024/03/14 10:07:37;;;;;;;0.65;0.50;;;;;;;-145.69;55.47;52246.34;5117904;27;20200;-81
2024/03/14 10:10:05;;;;;;;0.70;0.50;;;;;;;-145.69;53.18;52262.19;5117955;27;20213;-80
2024/03/14 10:12:32;;;;;;;0.70;0.60;;;;;;;-145.69;54.57;52242.38;5117635;27;20589;-81
2024/03/14 10:15:00;;;;;;;0.50;0.50;;;;;;;-145.69;52.74;52266.16;5117195;27;20589;-80
2024/03/14 10:17:28;;;;;;;0.70;0.60;;;;;;;-145.69;52.46;52254.28;5118111;27;20559;-81
2024/03/14 10:19:54;;;;;;;0.40;0.40;;;;;;;-145.69;50.37;52250.31;5117690;27;20224;-80
2024/03/14 10:22:21;;;;;;;0.77;0.57;;;;;;;-145.69;50.30;52272.09;5117382;27;20228;-79
2024/03/14 10:24:48;;;;;;;0.60;0.57;;;;;;;-145.69;50.86;52244.38;5117568;27;20208;-80
2024/03/14 10:27:16;;;;;;;0.50;0.50;;;;;;;-145.69;49.61;52270.13;5117301;27;20208;-79
2024/03/14 10:29:45;;;;;;;1.17;0.50;;;;;;;-145.69;49.30;52220.59;5117860;27;20277;-80
2024/03/14 10:32:12;;;;;;;0.30;0.30;;;;;;;-145.69;49.27;52240.41;5117709;27;20199;-80
2024/03/14 10:34:38;;;;;;;0.63;0.50;;;;;;;-145.69;48.28;52258.22;5117606;27;20300;-80
2024/03/14 10:37:06;;;;;;;0.73;0.50;;;;;;;-145.69;50.49;52218.63;5117192;27;20201;-80
2024/03/14 10:39:32;;;;;;;1.00;0.50;;;;;;;-145.69;46.68;52244.38;5116994;27;20328;-80
2024/03/14 10:42:03;;;;;;;0.40;0.40;;;;;;;-145.69;46.45;52208.72;5117037;27;20223;-80
2024/03/14 10:44:30;;;;;;;0.50;0.50;;;;;;;-145.69;46.62;52234.47;5116300;27;20203;-80
2024/03/14 10:46:57;;;;;;;0.82;0.40;;;;;;;-145.69;46.47;52226.53;5117386;27;20196;-80
2024/03/14 10:49:24;;;;;;;0.70;0.40;;;;;;;-145.69;47.83;52198.81;5117131;27;20651;-80
2024/03/14 10:51:51;;;;;;;1.33;0.30;;;;;;;-145.69;47.48;52244.38;5116866;27;20229;-80
2024/03/14 10:54:19;;;;;;;0.30;0.30;;;;;;;-145.69;45.74;52216.66;5117106;27;20249;-80
2024/03/14 10:56:46;;;;;;;0.52;0.32;;;;;;;-145.69;45.56;52206.75;5112818;28;20197;-80
2024/03/14 10:59:13;;;;;;;1.45;0.50;;;;;;;-145.69;45.09;52214.66;5096426;28;20221;-80
2024/03/14 11:01:42;;;;;;;0.22;0.22;;;;;;;-145.69;44.39;52194.88;5111720;27;20223;-80
2024/03/14 11:04:11;;;;;;;0.20;0.20;;;;;;;-145.69;43.43;52184.97;5112932;28;20586;-80
2024/03/14 11:06:38;;;;;;;0.30;0.30;;;;;;;-145.69;43.78;52194.88;5096658;28;20202;-80
2024/03/14 11:09:06;;;;;;;0.38;0.38;;;;;;;-145.69;43.17;52194.88;5096249;28;20202;-80
2024/03/14 11:11:33;;;;;;;2.25;0.50;;;;;;;-145.69;43.46;52186.94;5096424;28;20228;-80
2024/03/14 11:14:00;;;;;;;0.40;0.40;;;;;;;-145.69;42.45;52202.78;5096210;28;20564;-80
2024/03/14 11:16:28;;;;;;;0.98;0.38;;;;;;;-145.69;42.62;52184.97;5095580;28;20202;-80
2024/03/14 11:18:55;;;;;;;1.33;0.40;;;;;;;-145.69;41.84;52179.03;5101346;28;20555;-80